Portada
METAR-TAF:

METAR-TAF

Aeroports :

Izumo, Japó

latitud: 35-25N, longitud: 132-54E, altitud: 2 m

Observació

L'informe es va fer fa 8 hores i 37 minuts, a les 11:00 UTC
Vent 5 kt del Sud/Sud-Est
Temperatura 9°C
Humitat 66%
Pressió 1018 hPa
Visibilitat 10 km o més
sense núvols per sota de 1500 mi sense presència de cumulonimbus.

METAR: RJOC 181100Z 16005KT CAVOK 09/03 Q1018

Hora: 04:37 (19:37 UTC)

Pronòstic

L'informe es va fer fa 2 hores i 32 minuts, a les 17:05 UTC
Pronòstic vàlid del 18 a les 18 UTC al 20 a les 00 UTC
Vent 6 kt del Sud
Visibilitat 10 km o més
Escasses núvols a una alçada de 2000 ft
Núvols disperses a una alçada de 5000 ft
pluja
Evolucionant progressivament
l' 19 a les 01 UTC al 19 a les 03 UTC
Vent 5 kt del Nord-Est
Evolucionant progressivament
l' 19 a les 09 UTC al 19 a les 12 UTC
Vent 5 kt del Sud

TAF: RJOC 181705Z 1818/2000 17006KT 9999 -RA FEW020 SCT050 BECMG 1901/1903 05005KT BECMG 1909/1912 17005KT

Observacions i pronòstics meteorològics de més de 4000 aeroports (METAR i TAF).

Les estacions disponibles són els punts grocs i vermells al mapa.

Posi el ratolí al punt desitjat per veure el nom de l'estació.

Feu clic per veure les observacions i els pronòstics meteorològics.

Per canviar el mapa: feu clic els botons verds amb una creu de color negre per apropar; al botó verd amb un guió per allunyar la imatge; o en les fletxes verdes per a mapes adjacents.


METAR-TAF: